sensor_id;sensor_type;location;lat;lon;timestamp;noise_LAeq;noise_LA_min;noise_LA_max;noise_LA01;noise_LA95
69609;Laerm;56815;52.320;4.858;2023-04-08T00:00:05;56.34;31.27;76.73;;
69609;Laerm;56815;52.320;4.858;2023-04-08T00:00:17;44.65;31.17;66.26;;
69609;Laerm;56815;52.320;4.858;2023-04-08T00:00:27;32.94;31.33;35.33;;
69609;Laerm;56815;52.320;4.858;2023-04-08T00:00:37;33.24;31.36;40.64;;
69609;Laerm;56815;52.320;4.858;2023-04-08T00:00:48;32.59;30.58;38.88;;
69609;Laerm;56815;52.320;4.858;2023-04-08T00:00:58;31.87;30.41;34.20;;
69609;Laerm;56815;52.320;4.858;2023-04-08T00:01:09;32.29;30.59;34.36;;
69609;Laerm;56815;52.320;4.858;2023-04-08T00:01:20;33.49;31.36;36.70;;
69609;Laerm;56815;52.320;4.858;2023-04-08T00:01:30;33.68;31.03;38.87;;
69609;Laerm;56815;52.320;4.858;2023-04-08T00:01:40;35.19;31.71;38.80;;
69609;Laerm;56815;52.320;4.858;2023-04-08T00:01:50;35.10;32.18;39.98;;
69609;Laerm;56815;52.320;4.858;2023-04-08T00:02:01;34.19;31.19;37.03;;
69609;Laerm;56815;52.320;4.858;2023-04-08T00:02:11;34.14;29.88;37.50;;
69609;Laerm;56815;52.320;4.858;2023-04-08T00:02:21;34.36;31.67;38.77;;
69609;Laerm;56815;52.320;4.858;2023-04-08T00:02:32;34.25;31.31;39.62;;
69609;Laerm;56815;52.320;4.858;2023-04-08T00:02:42;32.93;30.24;36.51;;
69609;Laerm;56815;52.320;4.858;2023-04-08T00:02:53;32.35;30.26;34.28;;
69609;Laerm;56815;52.320;4.858;2023-04-08T00:03:03;31.82;30.00;37.02;;
69609;Laerm;56815;52.320;4.858;2023-04-08T00:03:13;32.18;29.94;40.09;;
69609;Laerm;56815;52.320;4.858;2023-04-08T00:03:24;31.96;30.20;34.43;;
69609;Laerm;56815;52.320;4.858;2023-04-08T00:03:34;31.84;30.12;33.76;;
69609;Laerm;56815;52.320;4.858;2023-04-08T00:03:44;31.97;30.41;34.70;;
69609;Laerm;56815;52.320;4.858;2023-04-08T00:03:55;32.94;30.92;36.15;;
69609;Laerm;56815;52.320;4.858;2023-04-08T00:04:05;32.41;30.01;35.74;;
69609;Laerm;56815;52.320;4.858;2023-04-08T00:04:18;32.28;30.42;38.88;;
69609;Laerm;56815;52.320;4.858;2023-04-08T00:04:28;33.07;30.79;36.34;;
69609;Laerm;56815;52.320;4.858;2023-04-08T00:04:39;32.96;31.11;36.10;;
69609;Laerm;56815;52.320;4.858;2023-04-08T00:04:49;34.68;30.96;38.11;;
69609;Laerm;56815;52.320;4.858;2023-04-08T00:04:59;32.68;30.67;35.09;;
69609;Laerm;56815;52.320;4.858;2023-04-08T00:05:10;32.43;29.45;36.60;;
69609;Laerm;56815;52.320;4.858;2023-04-08T00:05:20;31.44;29.37;39.57;;
69609;Laerm;56815;52.320;4.858;2023-04-08T00:05:30;31.36;29.67;37.91;;
69609;Laerm;56815;52.320;4.858;2023-04-08T00:05:41;31.28;29.49;33.96;;
69609;Laerm;56815;52.320;4.858;2023-04-08T00:05:51;31.30;29.88;32.76;;
69609;Laerm;56815;52.320;4.858;2023-04-08T00:06:01;30.87;29.18;32.36;;
69609;Laerm;56815;52.320;4.858;2023-04-08T00:06:13;30.88;29.44;33.36;;
69609;Laerm;56815;52.320;4.858;2023-04-08T00:06:23;31.15;29.65;33.70;;
69609;Laerm;56815;52.320;4.858;2023-04-08T00:06:33;30.93;29.18;36.98;;
69609;Laerm;56815;52.320;4.858;2023-04-08T00:06:44;30.56;28.88;33.70;;
69609;Laerm;56815;52.320;4.858;2023-04-08T00:06:54;30.59;29.02;37.80;;
69609;Laerm;56815;52.320;4.858;2023-04-08T00:07:05;30.57;28.66;34.63;;
69609;Laerm;56815;52.320;4.858;2023-04-08T00:07:16;31.54;29.50;35.45;;
69609;Laerm;56815;52.320;4.858;2023-04-08T00:07:26;30.88;29.26;32.66;;
69609;Laerm;56815;52.320;4.858;2023-04-08T00:07:36;30.79;29.18;33.35;;
69609;Laerm;56815;52.320;4.858;2023-04-08T00:07:47;30.95;29.54;36.44;;
69609;Laerm;56815;52.320;4.858;2023-04-08T00:07:57;30.50;29.05;31.90;;
69609;Laerm;56815;52.320;4.858;2023-04-08T00:08:08;30.56;29.39;33.99;;
69609;Laerm;56815;52.320;4.858;2023-04-08T00:08:18;31.19;29.66;32.73;;
69609;Laerm;56815;52.320;4.858;2023-04-08T00:08:29;31.48;29.86;33.92;;
69609;Laerm;56815;52.320;4.858;2023-04-08T00:08:39;31.31;29.50;34.81;;
69609;Laerm;56815;52.320;4.858;2023-04-08T00:08:50;31.94;30.16;34.25;;
69609;Laerm;56815;52.320;4.858;2023-04-08T00:09:01;31.96;30.26;34.26;;
69609;Laerm;56815;52.320;4.858;2023-04-08T00:09:11;33.56;30.71;37.80;;
69609;Laerm;56815;52.320;4.858;2023-04-08T00:09:21;32.17;30.17;36.05;;
69609;Laerm;56815;52.320;4.858;2023-04-08T00:09:31;32.60;30.17;35.10;;
69609;Laerm;56815;52.320;4.858;2023-04-08T00:09:42;32.09;29.90;35.36;;
69609;Laerm;56815;52.320;4.858;2023-04-08T00:09:52;31.85;29.75;37.01;;
69609;Laerm;56815;52.320;4.858;2023-04-08T00:10:02;31.37;29.84;33.08;;
69609;Laerm;56815;52.320;4.858;2023-04-08T00:10:13;31.49;30.10;33.16;;
69609;Laerm;56815;52.320;4.858;2023-04-08T00:10:23;33.37;31.39;35.60;;
69609;Laerm;56815;52.320;4.858;2023-04-08T00:10:35;33.32;30.47;35.85;;
69609;Laerm;56815;52.320;4.858;2023-04-08T00:10:45;31.96;29.93;39.78;;
69609;Laerm;56815;52.320;4.858;2023-04-08T00:10:55;32.15;30.43;34.62;;
69609;Laerm;56815;52.320;4.858;2023-04-08T00:11:06;31.71;29.75;34.12;;
69609;Laerm;56815;52.320;4.858;2023-04-08T00:11:16;35.93;31.26;42.09;;
69609;Laerm;56815;52.320;4.858;2023-04-08T00:11:26;32.59;29.67;35.65;;
69609;Laerm;56815;52.320;4.858;2023-04-08T00:11:36;32.76;29.69;37.00;;
69609;Laerm;56815;52.320;4.858;2023-04-08T00:11:47;33.16;30.38;38.34;;
69609;Laerm;56815;52.320;4.858;2023-04-08T00:11:57;32.87;30.73;34.65;;
69609;Laerm;56815;52.320;4.858;2023-04-08T00:12:07;33.79;30.84;38.32;;
69609;Laerm;56815;52.320;4.858;2023-04-08T00:12:18;31.95;30.51;34.92;;
69609;Laerm;56815;52.320;4.858;2023-04-08T00:12:28;32.54;30.99;34.46;;
69609;Laerm;56815;52.320;4.858;2023-04-08T00:12:38;33.10;31.45;35.81;;
69609;Laerm;56815;52.320;4.858;2023-04-08T00:12:48;33.65;31.55;39.25;;
69609;Laerm;56815;52.320;4.858;2023-04-08T00:12:59;32.55;30.75;35.12;;
69609;Laerm;56815;52.320;4.858;2023-04-08T00:13:10;31.89;29.94;34.04;;
69609;Laerm;56815;52.320;4.858;2023-04-08T00:13:20;32.28;30.60;34.27;;
69609;Laerm;56815;52.320;4.858;2023-04-08T00:13:30;32.66;31.14;35.47;;
69609;Laerm;56815;52.320;4.858;2023-04-08T00:13:41;32.38;30.49;36.33;;
69609;Laerm;56815;52.320;4.858;2023-04-08T00:13:51;32.63;30.79;34.68;;
69609;Laerm;56815;52.320;4.858;2023-04-08T00:14:02;33.10;31.16;35.32;;
69609;Laerm;56815;52.320;4.858;2023-04-08T00:14:13;32.54;30.53;34.47;;
69609;Laerm;56815;52.320;4.858;2023-04-08T00:14:23;33.18;31.38;34.83;;
69609;Laerm;56815;52.320;4.858;2023-04-08T00:14:33;34.46;32.21;37.06;;
69609;Laerm;56815;52.320;4.858;2023-04-08T00:14:44;34.95;32.75;38.42;;
69609;Laerm;56815;52.320;4.858;2023-04-08T00:14:54;34.96;33.04;38.56;;
69609;Laerm;56815;52.320;4.858;2023-04-08T00:15:05;35.23;32.73;37.37;;
69609;Laerm;56815;52.320;4.858;2023-04-08T00:15:15;35.01;32.70;37.47;;
69609;Laerm;56815;52.320;4.858;2023-04-08T00:15:25;34.38;32.16;36.56;;
69609;Laerm;56815;52.320;4.858;2023-04-08T00:15:36;34.43;32.07;36.30;;
69609;Laerm;56815;52.320;4.858;2023-04-08T00:15:46;34.65;32.44;38.25;;
69609;Laerm;56815;52.320;4.858;2023-04-08T00:15:56;34.92;32.88;36.76;;
69609;Laerm;56815;52.320;4.858;2023-04-08T00:16:07;34.99;32.87;38.15;;
69609;Laerm;56815;52.320;4.858;2023-04-08T00:16:17;35.71;32.74;38.36;;
69609;Laerm;56815;52.320;4.858;2023-04-08T00:16:27;34.62;32.54;36.74;;
69609;Laerm;56815;52.320;4.858;2023-04-08T00:16:37;34.82;32.02;37.31;;
69609;Laerm;56815;52.320;4.858;2023-04-08T00:16:48;35.29;33.16;37.32;;
69609;Laerm;56815;52.320;4.858;2023-04-08T00:16:58;34.95;32.81;37.31;;
69609;Laerm;56815;52.320;4.858;2023-04-08T00:17:08;34.72;32.67;37.76;;
69609;Laerm;56815;52.320;4.858;2023-04-08T00:17:18;35.47;33.41;38.67;;
69609;Laerm;56815;52.320;4.858;2023-04-08T00:17:29;35.24;33.41;37.20;;
69609;Laerm;56815;52.320;4.858;2023-04-08T00:17:40;35.15;33.23;36.97;;
69609;Laerm;56815;52.320;4.858;2023-04-08T00:17:50;36.08;33.59;38.49;;
69609;Laerm;56815;52.320;4.858;2023-04-08T00:18:02;35.19;32.61;37.28;;
69609;Laerm;56815;52.320;4.858;2023-04-08T00:18:13;34.51;32.10;36.75;;
69609;Laerm;56815;52.320;4.858;2023-04-08T00:18:24;34.85;32.65;39.75;;
69609;Laerm;56815;52.320;4.858;2023-04-08T00:18:34;34.65;32.68;37.70;;
69609;Laerm;56815;52.320;4.858;2023-04-08T00:18:47;34.14;32.22;36.23;;
69609;Laerm;56815;52.320;4.858;2023-04-08T00:18:58;35.30;32.88;38.07;;
69609;Laerm;56815;52.320;4.858;2023-04-08T00:19:08;35.46;33.35;37.91;;
69609;Laerm;56815;52.320;4.858;2023-04-08T00:19:18;35.20;33.05;38.06;;
69609;Laerm;56815;52.320;4.858;2023-04-08T00:19:29;34.89;32.88;37.25;;
69609;Laerm;56815;52.320;4.858;2023-04-08T00:19:39;35.17;32.53;37.86;;
69609;Laerm;56815;52.320;4.858;2023-04-08T00:19:50;35.94;33.17;39.01;;
69609;Laerm;56815;52.320;4.858;2023-04-08T00:20:00;35.37;32.83;37.45;;
69609;Laerm;56815;52.320;4.858;2023-04-08T00:20:10;34.95;33.08;36.87;;
69609;Laerm;56815;52.320;4.858;2023-04-08T00:20:22;35.49;32.96;40.27;;
69609;Laerm;56815;52.320;4.858;2023-04-08T00:20:32;34.93;32.72;40.37;;
69609;Laerm;56815;52.320;4.858;2023-04-08T00:20:43;34.11;32.21;37.46;;
69609;Laerm;56815;52.320;4.858;2023-04-08T00:20:53;34.35;31.17;38.40;;
69609;Laerm;56815;52.320;4.858;2023-04-08T00:21:03;34.73;32.72;36.49;;
69609;Laerm;56815;52.320;4.858;2023-04-08T00:21:14;33.93;32.18;35.53;;
69609;Laerm;56815;52.320;4.858;2023-04-08T00:21:26;34.52;32.71;37.21;;
69609;Laerm;56815;52.320;4.858;2023-04-08T00:21:37;35.13;32.76;37.00;;
69609;Laerm;56815;52.320;4.858;2023-04-08T00:21:47;35.30;33.33;37.59;;
69609;Laerm;56815;52.320;4.858;2023-04-08T00:21:58;35.01;33.18;40.21;;
69609;Laerm;56815;52.320;4.858;2023-04-08T00:22:08;35.12;32.83;37.31;;
69609;Laerm;56815;52.320;4.858;2023-04-08T00:22:18;34.65;32.13;36.62;;
69609;Laerm;56815;52.320;4.858;2023-04-08T00:22:28;34.53;31.34;41.20;;
69609;Laerm;56815;52.320;4.858;2023-04-08T00:22:39;34.52;32.18;40.82;;
69609;Laerm;56815;52.320;4.858;2023-04-08T00:22:49;35.37;33.45;37.27;;
69609;Laerm;56815;52.320;4.858;2023-04-08T00:23:00;36.26;33.06;46.20;;
69609;Laerm;56815;52.320;4.858;2023-04-08T00:23:10;34.83;32.23;38.21;;
69609;Laerm;56815;52.320;4.858;2023-04-08T00:23:20;34.98;32.50;43.41;;
69609;Laerm;56815;52.320;4.858;2023-04-08T00:23:30;34.24;32.41;37.56;;
69609;Laerm;56815;52.320;4.858;2023-04-08T00:23:41;33.45;31.87;35.51;;
69609;Laerm;56815;52.320;4.858;2023-04-08T00:23:51;34.35;32.01;40.52;;
69609;Laerm;56815;52.320;4.858;2023-04-08T00:24:01;34.25;31.82;37.56;;
69609;Laerm;56815;52.320;4.858;2023-04-08T00:24:12;34.38;32.17;41.81;;
69609;Laerm;56815;52.320;4.858;2023-04-08T00:24:23;33.77;31.37;36.79;;
69609;Laerm;56815;52.320;4.858;2023-04-08T00:24:33;33.34;31.45;37.42;;
69609;Laerm;56815;52.320;4.858;2023-04-08T00:24:43;34.29;31.88;36.97;;
69609;Laerm;56815;52.320;4.858;2023-04-08T00:24:54;35.89;33.41;39.27;;
69609;Laerm;56815;52.320;4.858;2023-04-08T00:25:04;36.10;33.24;44.67;;
69609;Laerm;56815;52.320;4.858;2023-04-08T00:25:18;34.91;32.26;44.31;;
69609;Laerm;56815;52.320;4.858;2023-04-08T00:25:28;35.60;33.39;38.59;;
69609;Laerm;56815;52.320;4.858;2023-04-08T00:25:39;36.21;33.66;39.10;;
69609;Laerm;56815;52.320;4.858;2023-04-08T00:25:50;36.00;33.97;39.13;;
69609;Laerm;56815;52.320;4.858;2023-04-08T00:26:00;34.61;32.33;36.57;;
69609;Laerm;56815;52.320;4.858;2023-04-08T00:26:10;34.62;32.87;38.16;;
69609;Laerm;56815;52.320;4.858;2023-04-08T00:26:20;34.19;31.94;35.76;;
69609;Laerm;56815;52.320;4.858;2023-04-08T00:26:31;35.08;32.89;37.98;;
69609;Laerm;56815;52.320;4.858;2023-04-08T00:26:41;35.25;33.20;37.45;;
69609;Laerm;56815;52.320;4.858;2023-04-08T00:26:51;34.65;32.15;37.28;;
69609;Laerm;56815;52.320;4.858;2023-04-08T00:27:02;34.13;32.46;35.96;;
69609;Laerm;56815;52.320;4.858;2023-04-08T00:27:12;33.56;31.37;35.96;;
69609;Laerm;56815;52.320;4.858;2023-04-08T00:27:22;34.01;31.51;40.82;;
69609;Laerm;56815;52.320;4.858;2023-04-08T00:27:34;33.88;31.90;36.33;;
69609;Laerm;56815;52.320;4.858;2023-04-08T00:27:45;34.73;32.85;37.98;;
69609;Laerm;56815;52.320;4.858;2023-04-08T00:27:55;34.98;32.78;37.01;;
69609;Laerm;56815;52.320;4.858;2023-04-08T00:28:05;35.41;32.31;43.26;;
69609;Laerm;56815;52.320;4.858;2023-04-08T00:28:15;36.50;34.31;40.25;;
69609;Laerm;56815;52.320;4.858;2023-04-08T00:28:26;35.55;32.97;37.90;;
69609;Laerm;56815;52.320;4.858;2023-04-08T00:28:36;35.42;33.34;37.72;;
69609;Laerm;56815;52.320;4.858;2023-04-08T00:28:47;34.03;32.42;36.23;;
69609;Laerm;56815;52.320;4.858;2023-04-08T00:28:57;34.50;32.53;36.78;;
69609;Laerm;56815;52.320;4.858;2023-04-08T00:29:07;33.73;32.13;37.54;;
69609;Laerm;56815;52.320;4.858;2023-04-08T00:29:18;34.11;31.80;38.27;;
69609;Laerm;56815;52.320;4.858;2023-04-08T00:29:28;33.68;30.99;37.77;;
69609;Laerm;56815;52.320;4.858;2023-04-08T00:29:38;33.35;31.54;35.29;;
69609;Laerm;56815;52.320;4.858;2023-04-08T00:29:49;33.26;31.84;36.22;;
69609;Laerm;56815;52.320;4.858;2023-04-08T00:29:59;37.66;31.21;52.70;;
69609;Laerm;56815;52.320;4.858;2023-04-08T00:30:10;34.25;31.75;40.80;;
69609;Laerm;56815;52.320;4.858;2023-04-08T00:30:21;33.92;30.86;46.22;;
69609;Laerm;56815;52.320;4.858;2023-04-08T00:30:31;33.06;31.29;36.06;;
69609;Laerm;56815;52.320;4.858;2023-04-08T00:30:41;33.46;31.58;35.24;;
69609;Laerm;56815;52.320;4.858;2023-04-08T00:30:52;33.67;31.48;46.23;;
69609;Laerm;56815;52.320;4.858;2023-04-08T00:31:02;33.68;31.92;38.46;;
69609;Laerm;56815;52.320;4.858;2023-04-08T00:31:12;34.02;32.02;38.18;;
69609;Laerm;56815;52.320;4.858;2023-04-08T00:31:23;33.87;32.13;36.31;;
69609;Laerm;56815;52.320;4.858;2023-04-08T00:31:33;33.70;31.54;35.77;;
69609;Laerm;56815;52.320;4.858;2023-04-08T00:31:43;34.20;32.25;40.90;;
69609;Laerm;56815;52.320;4.858;2023-04-08T00:31:53;33.34;31.48;35.75;;
69609;Laerm;56815;52.320;4.858;2023-04-08T00:32:04;33.86;31.59;40.46;;
69609;Laerm;56815;52.320;4.858;2023-04-08T00:32:14;34.38;31.87;40.75;;
69609;Laerm;56815;52.320;4.858;2023-04-08T00:32:25;33.39;31.91;35.24;;
69609;Laerm;56815;52.320;4.858;2023-04-08T00:32:36;33.36;30.78;38.38;;
69609;Laerm;56815;52.320;4.858;2023-04-08T00:32:47;33.72;31.81;47.24;;
69609;Laerm;56815;52.320;4.858;2023-04-08T00:32:57;34.20;31.76;37.84;;
69609;Laerm;56815;52.320;4.858;2023-04-08T00:33:07;33.31;31.14;35.02;;
69609;Laerm;56815;52.320;4.858;2023-04-08T00:33:17;32.82;31.00;34.80;;
69609;Laerm;56815;52.320;4.858;2023-04-08T00:33:28;32.46;30.70;35.29;;
69609;Laerm;56815;52.320;4.858;2023-04-08T00:33:38;32.77;30.54;34.30;;
69609;Laerm;56815;52.320;4.858;2023-04-08T00:33:48;32.49;30.91;33.86;;
69609;Laerm;56815;52.320;4.858;2023-04-08T00:33:59;33.39;31.56;40.12;;
69609;Laerm;56815;52.320;4.858;2023-04-08T00:34:09;33.46;31.50;35.00;;
69609;Laerm;56815;52.320;4.858;2023-04-08T00:34:19;33.97;32.32;35.82;;
69609;Laerm;56815;52.320;4.858;2023-04-08T00:34:30;34.33;32.08;44.44;;
69609;Laerm;56815;52.320;4.858;2023-04-08T00:34:40;34.13;32.51;36.36;;
69609;Laerm;56815;52.320;4.858;2023-04-08T00:34:51;34.17;31.93;36.62;;
69609;Laerm;56815;52.320;4.858;2023-04-08T00:35:01;34.19;32.47;36.90;;
69609;Laerm;56815;52.320;4.858;2023-04-08T00:35:12;36.32;32.09;49.10;;
69609;Laerm;56815;52.320;4.858;2023-04-08T00:35:22;34.37;32.49;39.20;;
69609;Laerm;56815;52.320;4.858;2023-04-08T00:35:33;34.76;31.89;48.24;;
69609;Laerm;56815;52.320;4.858;2023-04-08T00:35:44;34.78;32.63;37.07;;
69609;Laerm;56815;52.320;4.858;2023-04-08T00:35:55;34.43;31.57;37.15;;
69609;Laerm;56815;52.320;4.858;2023-04-08T00:36:05;33.14;31.65;35.60;;
69609;Laerm;56815;52.320;4.858;2023-04-08T00:36:15;34.36;32.17;36.89;;
69609;Laerm;56815;52.320;4.858;2023-04-08T00:36:26;34.98;32.20;46.24;;
69609;Laerm;56815;52.320;4.858;2023-04-08T00:36:37;34.73;32.56;36.78;;
69609;Laerm;56815;52.320;4.858;2023-04-08T00:36:47;34.38;32.51;37.32;;
69609;Laerm;56815;52.320;4.858;2023-04-08T00:36:58;38.37;31.73;57.97;;
69609;Laerm;56815;52.320;4.858;2023-04-08T00:37:08;48.16;32.32;64.59;;
69609;Laerm;56815;52.320;4.858;2023-04-08T00:37:18;34.39;32.27;36.41;;
69609;Laerm;56815;52.320;4.858;2023-04-08T00:37:30;34.35;32.25;36.40;;
69609;Laerm;56815;52.320;4.858;2023-04-08T00:37:40;34.16;31.96;36.51;;
69609;Laerm;56815;52.320;4.858;2023-04-08T00:37:51;33.94;31.94;35.73;;
69609;Laerm;56815;52.320;4.858;2023-04-08T00:38:01;34.87;31.61;40.35;;
69609;Laerm;56815;52.320;4.858;2023-04-08T00:38:12;34.66;32.54;36.76;;
69609;Laerm;56815;52.320;4.858;2023-04-08T00:38:22;35.42;32.50;38.11;;
69609;Laerm;56815;52.320;4.858;2023-04-08T00:38:33;34.39;31.82;37.33;;
69609;Laerm;56815;52.320;4.858;2023-04-08T00:38:43;34.33;32.20;37.03;;
69609;Laerm;56815;52.320;4.858;2023-04-08T00:38:53;34.54;32.22;37.60;;
69609;Laerm;56815;52.320;4.858;2023-04-08T00:39:04;33.80;31.65;36.16;;
69609;Laerm;56815;52.320;4.858;2023-04-08T00:39:15;33.39;31.44;34.98;;
69609;Laerm;56815;52.320;4.858;2023-04-08T00:39:26;33.69;31.91;35.62;;
69609;Laerm;56815;52.320;4.858;2023-04-08T00:39:36;34.20;31.62;40.39;;
69609;Laerm;56815;52.320;4.858;2023-04-08T00:39:46;34.06;32.18;36.40;;
69609;Laerm;56815;52.320;4.858;2023-04-08T00:39:57;35.06;32.77;40.82;;
69609;Laerm;56815;52.320;4.858;2023-04-08T00:40:07;34.62;32.53;39.43;;
69609;Laerm;56815;52.320;4.858;2023-04-08T00:40:17;34.60;31.80;37.96;;
69609;Laerm;56815;52.320;4.858;2023-04-08T00:40:28;35.04;32.27;38.02;;
69609;Laerm;56815;52.320;4.858;2023-04-08T00:40:38;34.31;32.35;36.19;;
69609;Laerm;56815;52.320;4.858;2023-04-08T00:40:48;34.10;31.96;37.34;;
69609;Laerm;56815;52.320;4.858;2023-04-08T00:40:58;33.82;31.13;38.52;;
69609;Laerm;56815;52.320;4.858;2023-04-08T00:41:09;34.26;32.36;37.98;;
69609;Laerm;56815;52.320;4.858;2023-04-08T00:41:19;34.89;32.78;40.24;;
69609;Laerm;56815;52.320;4.858;2023-04-08T00:41:29;35.64;32.61;47.99;;
69609;Laerm;56815;52.320;4.858;2023-04-08T00:41:40;35.60;32.49;53.39;;
69609;Laerm;56815;52.320;4.858;2023-04-08T00:41:50;35.81;33.38;38.25;;
69609;Laerm;56815;52.320;4.858;2023-04-08T00:42:00;34.03;31.46;36.80;;
69609;Laerm;56815;52.320;4.858;2023-04-08T00:42:11;33.69;31.70;35.70;;
69609;Laerm;56815;52.320;4.858;2023-04-08T00:42:21;33.86;31.69;37.35;;
69609;Laerm;56815;52.320;4.858;2023-04-08T00:42:31;34.10;32.31;35.96;;
69609;Laerm;56815;52.320;4.858;2023-04-08T00:42:42;34.57;32.67;36.71;;
69609;Laerm;56815;52.320;4.858;2023-04-08T00:42:52;53.18;32.22;74.59;;
69609;Laerm;56815;52.320;4.858;2023-04-08T00:43:02;52.29;32.67;70.10;;
69609;Laerm;56815;52.320;4.858;2023-04-08T00:43:12;47.27;33.59;65.75;;
69609;Laerm;56815;52.320;4.858;2023-04-08T00:43:23;38.50;32.69;53.18;;
69609;Laerm;56815;52.320;4.858;2023-04-08T00:43:33;36.82;33.40;49.68;;
69609;Laerm;56815;52.320;4.858;2023-04-08T00:43:43;35.98;33.90;38.86;;
69609;Laerm;56815;52.320;4.858;2023-04-08T00:43:53;35.70;33.87;37.63;;
69609;Laerm;56815;52.320;4.858;2023-04-08T00:44:04;35.38;32.95;38.43;;
69609;Laerm;56815;52.320;4.858;2023-04-08T00:44:15;34.49;32.27;38.75;;
69609;Laerm;56815;52.320;4.858;2023-04-08T00:44:25;35.91;32.84;41.68;;
69609;Laerm;56815;52.320;4.858;2023-04-08T00:44:35;34.59;32.53;36.90;;
69609;Laerm;56815;52.320;4.858;2023-04-08T00:44:46;34.50;32.21;37.52;;
69609;Laerm;56815;52.320;4.858;2023-04-08T00:44:56;34.43;32.53;36.67;;
69609;Laerm;56815;52.320;4.858;2023-04-08T00:45:06;34.62;32.40;37.90;;
69609;Laerm;56815;52.320;4.858;2023-04-08T00:45:17;34.58;32.55;37.63;;
69609;Laerm;56815;52.320;4.858;2023-04-08T00:45:27;34.47;32.30;36.18;;
69609;Laerm;56815;52.320;4.858;2023-04-08T00:45:37;34.16;32.24;36.80;;
69609;Laerm;56815;52.320;4.858;2023-04-08T00:45:48;34.11;32.26;36.47;;
69609;Laerm;56815;52.320;4.858;2023-04-08T00:45:58;34.26;32.42;36.34;;
69609;Laerm;56815;52.320;4.858;2023-04-08T00:46:08;34.45;32.62;36.77;;
69609;Laerm;56815;52.320;4.858;2023-04-08T00:46:19;34.07;31.86;36.32;;
69609;Laerm;56815;52.320;4.858;2023-04-08T00:46:30;34.42;32.22;36.49;;
69609;Laerm;56815;52.320;4.858;2023-04-08T00:46:42;34.88;32.92;38.76;;
69609;Laerm;56815;52.320;4.858;2023-04-08T00:46:52;35.31;33.26;38.21;;
69609;Laerm;56815;52.320;4.858;2023-04-08T00:47:03;35.78;33.27;39.32;;
69609;Laerm;56815;52.320;4.858;2023-04-08T00:47:13;35.54;33.30;37.69;;
69609;Laerm;56815;52.320;4.858;2023-04-08T00:47:24;37.15;33.71;44.36;;
69609;Laerm;56815;52.320;4.858;2023-04-08T00:47:35;36.03;32.69;40.43;;
69609;Laerm;56815;52.320;4.858;2023-04-08T00:47:45;34.88;32.97;36.67;;
69609;Laerm;56815;52.320;4.858;2023-04-08T00:47:56;34.46;32.22;36.40;;
69609;Laerm;56815;52.320;4.858;2023-04-08T00:48:06;34.92;33.10;37.03;;
69609;Laerm;56815;52.320;4.858;2023-04-08T00:48:16;35.47;32.58;37.07;;
69609;Laerm;56815;52.320;4.858;2023-04-08T00:48:27;35.72;33.80;38.31;;
69609;Laerm;56815;52.320;4.858;2023-04-08T00:48:38;36.27;33.78;39.38;;
69609;Laerm;56815;52.320;4.858;2023-04-08T00:48:49;35.46;33.39;38.57;;
69609;Laerm;56815;52.320;4.858;2023-04-08T00:49:00;34.91;32.91;39.04;;
69609;Laerm;56815;52.320;4.858;2023-04-08T00:49:11;34.89;32.95;38.12;;
69609;Laerm;56815;52.320;4.858;2023-04-08T00:49:21;35.29;33.01;37.23;;
69609;Laerm;56815;52.320;4.858;2023-04-08T00:49:31;35.97;33.75;37.94;;
69609;Laerm;56815;52.320;4.858;2023-04-08T00:49:42;34.80;32.89;37.96;;
69609;Laerm;56815;52.320;4.858;2023-04-08T00:49:53;34.92;32.97;40.47;;
69609;Laerm;56815;52.320;4.858;2023-04-08T00:50:03;35.71;33.67;40.45;;
69609;Laerm;56815;52.320;4.858;2023-04-08T00:50:13;34.86;32.43;36.52;;
69609;Laerm;56815;52.320;4.858;2023-04-08T00:50:24;35.20;33.11;37.64;;
69609;Laerm;56815;52.320;4.858;2023-04-08T00:50:35;34.73;32.80;36.86;;
69609;Laerm;56815;52.320;4.858;2023-04-08T00:50:45;34.18;31.76;36.41;;
69609;Laerm;56815;52.320;4.858;2023-04-08T00:50:56;34.66;32.66;37.14;;
69609;Laerm;56815;52.320;4.858;2023-04-08T00:51:06;34.13;32.19;36.09;;
69609;Laerm;56815;52.320;4.858;2023-04-08T00:51:17;34.51;32.70;36.60;;
69609;Laerm;56815;52.320;4.858;2023-04-08T00:51:28;35.08;33.08;37.98;;
69609;Laerm;56815;52.320;4.858;2023-04-08T00:51:38;35.45;33.08;37.68;;
69609;Laerm;56815;52.320;4.858;2023-04-08T00:51:49;34.41;32.54;36.07;;
69609;Laerm;56815;52.320;4.858;2023-04-08T00:52:00;34.69;32.68;36.95;;
69609;Laerm;56815;52.320;4.858;2023-04-08T00:52:10;34.68;33.10;36.26;;
69609;Laerm;56815;52.320;4.858;2023-04-08T00:52:21;34.97;33.35;36.98;;
69609;Laerm;56815;52.320;4.858;2023-04-08T00:52:31;35.16;32.87;36.88;;
69609;Laerm;56815;52.320;4.858;2023-04-08T00:52:41;34.41;31.78;38.21;;
69609;Laerm;56815;52.320;4.858;2023-04-08T00:52:51;34.69;32.49;36.57;;
69609;Laerm;56815;52.320;4.858;2023-04-08T00:53:02;34.59;32.69;37.23;;
69609;Laerm;56815;52.320;4.858;2023-04-08T00:53:14;34.25;32.49;36.14;;
69609;Laerm;56815;52.320;4.858;2023-04-08T00:53:26;34.90;32.72;36.80;;
69609;Laerm;56815;52.320;4.858;2023-04-08T00:53:36;34.81;33.06;37.70;;
69609;Laerm;56815;52.320;4.858;2023-04-08T00:53:47;34.92;32.83;36.90;;
69609;Laerm;56815;52.320;4.858;2023-04-08T00:53:57;34.62;32.95;36.62;;
69609;Laerm;56815;52.320;4.858;2023-04-08T00:54:09;33.93;32.32;35.69;;
69609;Laerm;56815;52.320;4.858;2023-04-08T00:54:19;33.67;30.92;36.22;;
69609;Laerm;56815;52.320;4.858;2023-04-08T00:54:30;33.22;31.22;35.62;;
69609;Laerm;56815;52.320;4.858;2023-04-08T00:54:40;32.99;30.83;35.83;;
69609;Laerm;56815;52.320;4.858;2023-04-08T00:54:51;33.80;31.64;38.49;;
69609;Laerm;56815;52.320;4.858;2023-04-08T00:55:01;34.08;31.97;36.39;;
69609;Laerm;56815;52.320;4.858;2023-04-08T00:55:11;34.57;32.05;36.85;;
69609;Laerm;56815;52.320;4.858;2023-04-08T00:55:22;34.71;32.27;37.29;;
69609;Laerm;56815;52.320;4.858;2023-04-08T00:55:32;35.16;32.74;38.17;;
69609;Laerm;56815;52.320;4.858;2023-04-08T00:55:42;34.70;32.80;41.15;;
69609;Laerm;56815;52.320;4.858;2023-04-08T00:55:53;34.63;32.87;36.79;;
69609;Laerm;56815;52.320;4.858;2023-04-08T00:56:03;34.51;32.21;37.60;;
69609;Laerm;56815;52.320;4.858;2023-04-08T00:56:13;34.48;32.13;36.62;;
69609;Laerm;56815;52.320;4.858;2023-04-08T00:56:24;34.14;32.23;36.16;;
69609;Laerm;56815;52.320;4.858;2023-04-08T00:56:35;33.66;32.06;35.40;;
69609;Laerm;56815;52.320;4.858;2023-04-08T00:56:45;34.87;32.26;38.12;;
69609;Laerm;56815;52.320;4.858;2023-04-08T00:56:56;34.61;32.49;36.42;;
69609;Laerm;56815;52.320;4.858;2023-04-08T00:57:09;33.79;31.31;38.23;;
69609;Laerm;56815;52.320;4.858;2023-04-08T00:57:19;33.59;31.89;36.47;;
69609;Laerm;56815;52.320;4.858;2023-04-08T00:57:29;33.23;31.65;35.19;;
69609;Laerm;56815;52.320;4.858;2023-04-08T00:57:40;33.52;31.09;36.49;;
69609;Laerm;56815;52.320;4.858;2023-04-08T00:57:50;33.00;31.35;36.01;;
69609;Laerm;56815;52.320;4.858;2023-04-08T00:58:01;32.98;31.10;34.75;;
69609;Laerm;56815;52.320;4.858;2023-04-08T00:58:11;33.64;31.53;37.39;;
69609;Laerm;56815;52.320;4.858;2023-04-08T00:58:22;35.09;32.40;39.67;;
69609;Laerm;56815;52.320;4.858;2023-04-08T00:58:33;33.55;31.16;36.78;;
69609;Laerm;56815;52.320;4.858;2023-04-08T00:58:43;32.93;31.48;35.51;;